createdAt,value
2019-01-29T00:01:01.631Z,23.27
2019-01-29T00:03:29.088Z,22.80
2019-01-29T00:05:56.491Z,24.47
2019-01-29T00:08:23.803Z,21.17
2019-01-29T00:10:51.143Z,18.57
2019-01-29T00:13:18.355Z,30.37
2019-01-29T00:15:45.684Z,22.10
2019-01-29T00:18:13.029Z,34.00
2019-01-29T00:20:40.350Z,33.00
2019-01-29T00:23:07.573Z,24.80
2019-01-29T00:25:34.930Z,29.87
2019-01-29T00:28:02.249Z,22.82
2019-01-29T00:30:29.534Z,28.07
2019-01-29T00:32:56.899Z,25.08
2019-01-29T00:35:24.203Z,31.95
2019-01-29T00:37:51.424Z,30.85
2019-01-29T00:40:18.767Z,28.32
2019-01-29T00:42:46.053Z,26.87
2019-01-29T00:45:13.381Z,26.42
2019-01-29T00:47:40.709Z,28.90
2019-01-29T00:50:08.367Z,24.37
2019-01-29T00:52:41.837Z,29.75
2019-01-29T00:55:05.870Z,29.30
2019-01-29T00:57:33.159Z,29.45
2019-01-29T01:00:00.583Z,27.15
2019-01-29T01:02:27.910Z,28.40
2019-01-29T01:04:55.123Z,26.52
2019-01-29T01:07:22.348Z,31.90
2019-01-29T01:09:57.061Z,23.27
2019-01-29T01:12:18.882Z,24.12
2019-01-29T01:14:46.079Z,29.85
2019-01-29T01:17:13.411Z,34.35
2019-01-29T01:19:40.706Z,30.25
2019-01-29T01:22:08.135Z,26.73
2019-01-29T01:24:35.519Z,26.82
2019-01-29T01:27:02.835Z,34.73
2019-01-29T01:29:33.129Z,27.95
2019-01-29T01:32:00.391Z,27.70
2019-01-29T01:34:27.713Z,28.45
2019-01-29T01:36:55.039Z,32.15
2019-01-29T01:39:22.276Z,26.42
2019-01-29T01:41:49.563Z,31.77
2019-01-29T01:44:16.785Z,34.05
2019-01-29T01:46:44.013Z,29.25
2019-01-29T01:49:11.341Z,30.02
2019-01-29T01:51:38.648Z,27.05
2019-01-29T01:54:05.962Z,31.27
2019-01-29T01:56:33.157Z,32.67
2019-01-29T01:59:00.473Z,32.88
2019-01-29T02:01:27.697Z,34.45
2019-01-29T02:03:54.909Z,32.30
2019-01-29T02:06:22.129Z,29.98
2019-01-29T02:08:49.456Z,30.77
2019-01-29T02:11:16.816Z,32.38
2019-01-29T02:13:44.125Z,25.70
2019-01-29T02:16:11.394Z,26.20
2019-01-29T02:18:38.633Z,29.07
2019-01-29T02:21:05.962Z,23.05
2019-01-29T02:23:33.192Z,25.97
2019-01-29T02:26:00.484Z,24.63
2019-01-29T02:28:27.712Z,27.22
2019-01-29T02:30:55.080Z,26.15
2019-01-29T02:33:24.968Z,24.67
2019-01-29T02:35:51.473Z,23.47
2019-01-29T02:38:18.842Z,24.75
2019-01-29T02:40:46.082Z,27.80
2019-01-29T02:43:13.337Z,24.82
2019-01-29T02:45:40.648Z,36.50
2019-01-29T02:48:07.884Z,27.02
2019-01-29T02:50:35.233Z,24.37
2019-01-29T02:53:02.559Z,22.55
2019-01-29T02:55:29.950Z,20.23
2019-01-29T02:57:57.302Z,23.42
2019-01-29T03:00:25.984Z,27.27
2019-01-29T03:02:53.328Z,32.20
2019-01-29T03:05:20.668Z,29.25
2019-01-29T03:07:48.191Z,24.77
2019-01-29T03:10:17.590Z,27.10
2019-01-29T03:12:44.858Z,19.77
2019-01-29T03:15:15.396Z,19.05
2019-01-29T03:17:42.622Z,18.73
2019-01-29T03:20:10.182Z,21.17
2019-01-29T03:22:37.441Z,18.07
2019-01-29T03:25:05.159Z,19.35
2019-01-29T03:27:32.496Z,25.80
2019-01-29T03:29:59.905Z,19.15
2019-01-29T03:32:27.224Z,21.55
2019-01-29T03:34:54.524Z,19.15
2019-01-29T03:37:21.886Z,16.52
2019-01-29T03:39:49.220Z,16.87
2019-01-29T03:42:17.152Z,15.70
2019-01-29T03:44:44.508Z,19.23
2019-01-29T03:47:11.875Z,22.35
2019-01-29T03:49:39.129Z,20.30
2019-01-29T03:52:06.481Z,17.57
2019-01-29T03:54:33.789Z,22.37
2019-01-29T03:57:01.001Z,17.73
2019-01-29T03:59:28.339Z,19.65
2019-01-29T04:01:55.748Z,19.87
2019-01-29T04:04:23.163Z,26.60
2019-01-29T04:06:50.507Z,20.27
2019-01-29T04:09:17.837Z,22.48
2019-01-29T04:11:45.037Z,29.40
2019-01-29T04:14:12.385Z,23.70
2019-01-29T04:16:39.620Z,27.55
2019-01-29T04:19:06.838Z,23.98
2019-01-29T04:21:34.198Z,27.77
2019-01-29T04:24:01.633Z,25.20
2019-01-29T04:26:29.025Z,28.87
2019-01-29T04:28:56.266Z,28.27
2019-01-29T04:31:23.635Z,29.18
2019-01-29T04:33:50.942Z,26.70
2019-01-29T04:36:18.269Z,27.32
2019-01-29T04:38:45.576Z,31.37
2019-01-29T04:41:12.793Z,28.60
2019-01-29T04:43:40.155Z,30.50
2019-01-29T04:46:07.470Z,24.27
2019-01-29T04:48:34.681Z,27.25
2019-01-29T04:51:02.038Z,28.80
2019-01-29T04:53:29.450Z,29.55
2019-01-29T04:55:56.752Z,31.65
2019-01-29T04:58:24.080Z,36.75
2019-01-29T05:00:51.419Z,30.27
2019-01-29T05:03:18.737Z,25.90
2019-01-29T05:05:46.084Z,28.38
2019-01-29T05:08:13.269Z,35.23
2019-01-29T05:10:40.581Z,31.85
2019-01-29T05:13:07.906Z,32.95
2019-01-29T05:15:35.200Z,36.00
2019-01-29T05:18:02.434Z,39.45
2019-01-29T05:20:29.767Z,36.10
2019-01-29T05:22:57.070Z,33.40
2019-01-29T05:25:24.370Z,33.18
2019-01-29T05:27:51.622Z,37.65
2019-01-29T05:30:21.172Z,34.48
2019-01-29T05:32:48.539Z,33.38
2019-01-29T05:35:15.898Z,39.53
2019-01-29T05:37:43.202Z,31.07
2019-01-29T05:40:12.696Z,29.92
2019-01-29T05:42:39.938Z,34.13
2019-01-29T05:45:08.919Z,33.48
2019-01-29T05:47:36.220Z,34.88
2019-01-29T05:50:04.729Z,26.75
2019-01-29T05:52:32.036Z,34.27
2019-01-29T05:54:59.752Z,33.65
2019-01-29T05:57:27.076Z,33.70
2019-01-29T05:59:54.385Z,32.58
2019-01-29T06:02:21.697Z,29.02
2019-01-29T06:04:48.928Z,31.60
2019-01-29T06:07:16.246Z,26.62
2019-01-29T06:09:43.557Z,27.13
2019-01-29T06:12:10.999Z,25.23
2019-01-29T06:14:38.346Z,30.45
2019-01-29T06:17:05.736Z,30.68
2019-01-29T06:19:33.188Z,28.00
2019-01-29T06:22:00.506Z,29.48
2019-01-29T06:24:27.819Z,36.33
2019-01-29T06:26:55.046Z,27.42
2019-01-29T06:29:22.352Z,30.70
2019-01-29T06:31:49.648Z,31.93
2019-01-29T06:34:16.966Z,32.40
2019-01-29T06:36:44.273Z,25.00
2019-01-29T06:39:11.476Z,29.77
2019-01-29T06:41:38.826Z,22.65
2019-01-29T06:44:06.157Z,32.45
2019-01-29T06:46:33.472Z,27.48
2019-01-29T06:49:00.677Z,29.95
2019-01-29T06:51:29.461Z,28.32
2019-01-29T06:53:56.825Z,34.78
2019-01-29T06:56:24.237Z,31.85
2019-01-29T06:58:51.645Z,25.92
2019-01-29T07:01:18.985Z,35.08
2019-01-29T07:03:46.322Z,36.65
2019-01-29T07:06:13.563Z,33.00
2019-01-29T07:08:40.844Z,37.15
2019-01-29T07:11:08.200Z,35.28
2019-01-29T07:13:35.598Z,30.50
2019-01-29T07:16:28.348Z,27.32
2019-01-29T07:19:00.636Z,30.75
2019-01-29T07:21:27.996Z,29.95
2019-01-29T07:23:55.326Z,32.13
2019-01-29T07:26:22.578Z,29.92
2019-01-29T07:28:49.883Z,24.63
2019-01-29T07:31:17.312Z,27.20
2019-01-29T07:33:44.644Z,26.65
2019-01-29T07:36:11.959Z,28.57
2019-01-29T07:38:39.311Z,26.87
2019-01-29T07:41:06.626Z,32.53
2019-01-29T07:43:33.868Z,27.20
2019-01-29T07:46:01.432Z,33.50
2019-01-29T07:48:28.832Z,29.37
2019-01-29T07:50:56.108Z,28.35
2019-01-29T07:53:23.428Z,23.92
2019-01-29T07:55:50.833Z,26.62
2019-01-29T07:58:18.137Z,29.82
2019-01-29T08:00:45.481Z,32.00
2019-01-29T08:03:12.777Z,27.98
2019-01-29T08:05:39.989Z,31.55
2019-01-29T08:08:07.325Z,30.72
2019-01-29T08:10:34.624Z,30.77
2019-01-29T08:13:01.821Z,27.85
2019-01-29T08:15:29.197Z,28.42
2019-01-29T08:17:56.401Z,28.77
2019-01-29T08:20:23.607Z,28.32
2019-01-29T08:22:50.957Z,26.45
2019-01-29T08:25:18.302Z,32.03
2019-01-29T08:27:45.485Z,27.82
2019-01-29T08:30:12.869Z,30.50
2019-01-29T08:32:40.115Z,31.68
2019-01-29T08:35:07.793Z,24.75
2019-01-29T08:37:35.140Z,29.32
2019-01-29T08:40:02.552Z,32.00
2019-01-29T08:42:29.893Z,27.87
2019-01-29T08:44:57.165Z,29.37
2019-01-29T08:47:24.497Z,23.38
2019-01-29T08:49:51.721Z,27.35
2019-01-29T08:52:19.070Z,22.58
2019-01-29T08:54:46.276Z,29.60
2019-01-29T08:57:13.619Z,27.15
2019-01-29T08:59:41.012Z,30.08
2019-01-29T09:02:08.376Z,28.07
2019-01-29T09:04:35.722Z,27.82
2019-01-29T09:07:03.051Z,34.38
2019-01-29T09:09:30.361Z,37.20
2019-01-29T09:11:57.842Z,28.98
2019-01-29T09:14:25.161Z,30.43
2019-01-29T09:16:52.367Z,30.37
2019-01-29T09:19:19.667Z,21.97
2019-01-29T09:21:47.054Z,20.55
2019-01-29T09:24:14.373Z,19.92
2019-01-29T09:26:41.574Z,26.85
2019-01-29T09:29:17.488Z,19.55
2019-01-29T09:31:37.908Z,24.63
2019-01-29T09:34:05.209Z,21.12
2019-01-29T09:36:34.023Z,22.62
2019-01-29T09:39:01.475Z,22.07
2019-01-29T09:41:28.709Z,18.32
2019-01-29T09:43:56.043Z,20.40
2019-01-29T09:46:23.538Z,14.28
2019-01-29T09:48:50.853Z,17.07
2019-01-29T09:51:18.306Z,21.07
2019-01-29T09:53:45.515Z,14.03
2019-01-29T09:56:12.795Z,12.93
2019-01-29T09:58:40.047Z,13.00
2019-01-29T10:01:07.263Z,11.70
2019-01-29T10:03:34.465Z,11.17
2019-01-29T10:06:01.788Z,11.57
2019-01-29T10:08:29.082Z,11.93
2019-01-29T10:10:56.305Z,10.43
2019-01-29T10:13:23.682Z,10.37
2019-01-29T10:15:51.008Z,14.50
2019-01-29T10:18:18.436Z,9.53
2019-01-29T10:20:45.656Z,10.87
2019-01-29T10:23:12.840Z,8.03
2019-01-29T10:25:40.150Z,9.03
2019-01-29T10:28:07.486Z,8.13
2019-01-29T10:30:34.801Z,7.30
2019-01-29T10:33:02.108Z,10.73
2019-01-29T10:35:29.465Z,8.50
2019-01-29T10:37:56.914Z,9.70
2019-01-29T10:40:24.837Z,7.10
2019-01-29T10:42:52.367Z,9.33
2019-01-29T10:45:20.469Z,9.90
2019-01-29T10:47:47.761Z,8.30
2019-01-29T10:50:17.478Z,10.03
2019-01-29T10:52:44.785Z,10.67
2019-01-29T10:55:12.099Z,10.00
2019-01-29T10:57:39.449Z,7.20
2019-01-29T11:00:12.081Z,4.17
2019-01-29T11:02:39.324Z,7.20
2019-01-29T11:05:07.244Z,6.90
2019-01-29T11:07:34.558Z,4.73
2019-01-29T11:10:02.009Z,4.57
2019-01-29T11:12:29.249Z,5.00
2019-01-29T11:14:56.601Z,5.73
2019-01-29T11:17:23.939Z,5.53
2019-01-29T11:19:51.253Z,6.97
2019-01-29T11:22:18.586Z,6.23
2019-01-29T11:24:45.779Z,5.80
2019-01-29T11:27:13.136Z,9.03
2019-01-29T11:29:40.332Z,7.03
2019-01-29T11:32:07.637Z,5.97
2019-01-29T11:34:35.000Z,5.03
2019-01-29T11:37:02.313Z,6.57
2019-01-29T11:39:29.652Z,6.40
2019-01-29T11:41:57.045Z,9.60
2019-01-29T11:44:24.257Z,7.83
2019-01-29T11:46:51.569Z,4.57
2019-01-29T11:49:18.925Z,7.60
2019-01-29T11:51:46.227Z,9.23
2019-01-29T11:54:13.436Z,7.47
2019-01-29T11:56:40.668Z,9.33
2019-01-29T11:59:07.968Z,4.77
2019-01-29T12:01:35.269Z,4.77
2019-01-29T12:04:02.676Z,6.83
2019-01-29T12:06:29.992Z,6.87
2019-01-29T12:08:57.212Z,7.30
2019-01-29T12:11:24.752Z,6.60
2019-01-29T12:13:51.969Z,7.07
2019-01-29T12:16:19.586Z,5.87
2019-01-29T12:18:47.019Z,5.27
2019-01-29T12:21:14.349Z,5.87
2019-01-29T12:23:41.545Z,5.90
2019-01-29T12:26:13.160Z,5.77
2019-01-29T12:28:37.998Z,7.63
2019-01-29T12:31:05.317Z,2.40
2019-01-29T12:33:32.655Z,4.20
2019-01-29T12:35:59.877Z,3.77
2019-01-29T12:38:27.266Z,5.83
2019-01-29T12:40:54.601Z,7.23
2019-01-29T12:43:21.907Z,6.63
2019-01-29T12:45:49.151Z,5.33
2019-01-29T12:48:16.541Z,5.33
2019-01-29T12:50:49.409Z,7.42
2019-01-29T12:53:18.965Z,6.67
2019-01-29T12:55:46.308Z,6.17
2019-01-29T12:58:13.615Z,4.00
2019-01-29T13:00:44.681Z,3.73
2019-01-29T13:03:11.912Z,8.77
2019-01-29T13:05:39.213Z,4.90
2019-01-29T13:08:08.442Z,5.05
2019-01-29T13:10:35.762Z,2.93
2019-01-29T13:13:03.666Z,4.87
2019-01-29T13:15:31.130Z,3.30
2019-01-29T13:17:58.483Z,6.08
2019-01-29T13:20:26.657Z,4.83
2019-01-29T13:22:53.985Z,4.12
2019-01-29T13:25:21.361Z,7.17
2019-01-29T13:27:48.709Z,3.37
2019-01-29T13:30:22.287Z,2.90
2019-01-29T13:33:06.444Z,5.37
2019-01-29T13:35:36.257Z,7.65
2019-01-29T13:38:04.105Z,3.70
2019-01-29T13:40:31.443Z,4.85
2019-01-29T13:42:58.681Z,5.97
2019-01-29T13:45:26.004Z,2.20
2019-01-29T13:47:53.340Z,3.10
2019-01-29T13:50:30.059Z,3.87
2019-01-29T13:52:57.361Z,5.45
2019-01-29T13:55:24.570Z,4.80
2019-01-29T13:57:51.921Z,7.72
2019-01-29T14:00:24.683Z,5.77
2019-01-29T14:02:52.022Z,3.77
2019-01-29T14:05:19.464Z,3.17
2019-01-29T14:07:46.835Z,5.62
2019-01-29T14:10:14.169Z,3.42
2019-01-29T14:12:41.620Z,10.43
2019-01-29T14:15:12.598Z,4.83
2019-01-29T14:17:39.936Z,6.08
2019-01-29T14:20:11.288Z,7.90
2019-01-29T14:22:38.604Z,7.00
2019-01-29T14:25:06.036Z,9.78
2019-01-29T14:27:33.457Z,6.70
2019-01-29T14:30:00.769Z,4.55
2019-01-29T14:32:28.105Z,8.63
2019-01-29T14:34:55.475Z,5.70
2019-01-29T14:37:22.777Z,7.03
2019-01-29T14:40:17.545Z,6.40
2019-01-29T14:42:46.643Z,7.67
2019-01-29T14:45:20.940Z,4.12
2019-01-29T14:47:48.225Z,9.25
2019-01-29T14:50:15.857Z,6.05
2019-01-29T14:52:43.206Z,4.53
2019-01-29T14:55:10.621Z,7.05
2019-01-29T14:57:37.980Z,7.15
2019-01-29T15:00:11.000Z,7.83
2019-01-29T15:02:38.326Z,6.95
2019-01-29T15:05:05.965Z,8.85
2019-01-29T15:07:33.293Z,11.33
2019-01-29T15:10:00.689Z,6.28
2019-01-29T15:12:28.019Z,9.60
2019-01-29T15:14:55.571Z,6.05
2019-01-29T15:17:40.846Z,6.92
2019-01-29T15:20:09.450Z,8.33
2019-01-29T15:22:36.745Z,12.60
2019-01-29T15:25:04.997Z,9.20
2019-01-29T15:27:32.415Z,8.83
2019-01-29T15:29:59.725Z,9.83
2019-01-29T15:32:27.019Z,9.45
2019-01-29T15:34:54.351Z,4.62
2019-01-29T15:37:21.679Z,8.08
2019-01-29T15:39:48.887Z,5.62
2019-01-29T15:42:16.219Z,8.05
2019-01-29T15:44:43.443Z,9.70
2019-01-29T15:47:10.757Z,10.53
2019-01-29T15:49:38.092Z,8.38
2019-01-29T15:52:05.447Z,7.25
2019-01-29T15:54:34.467Z,6.25
2019-01-29T15:57:01.798Z,10.85
2019-01-29T15:59:29.055Z,12.25
2019-01-29T16:01:56.478Z,5.80
2019-01-29T16:04:23.725Z,5.50
2019-01-29T16:06:51.457Z,7.58
2019-01-29T16:09:18.760Z,9.40
2019-01-29T16:11:46.115Z,8.73
2019-01-29T16:14:13.437Z,10.43
2019-01-29T16:16:40.801Z,8.50
2019-01-29T16:19:08.136Z,7.00
2019-01-29T16:21:35.450Z,5.90
2019-01-29T16:24:03.064Z,8.40
2019-01-29T16:26:31.324Z,12.03
2019-01-29T16:28:58.573Z,9.30
2019-01-29T16:31:25.916Z,7.78
2019-01-29T16:33:53.327Z,6.10
2019-01-29T16:36:20.708Z,6.70
2019-01-29T16:38:48.013Z,7.80
2019-01-29T16:41:15.412Z,7.20
2019-01-29T16:43:42.741Z,8.70
2019-01-29T16:46:09.949Z,8.33
2019-01-29T16:48:37.239Z,5.72
2019-01-29T16:51:04.677Z,6.15
2019-01-29T16:53:31.991Z,11.18
2019-01-29T16:55:59.353Z,7.20
2019-01-29T16:58:26.648Z,8.98
2019-01-29T17:00:53.969Z,5.75
2019-01-29T17:03:21.295Z,6.45
2019-01-29T17:05:48.618Z,10.72
2019-01-29T17:08:15.933Z,11.78
2019-01-29T17:10:43.258Z,9.28
2019-01-29T17:13:10.559Z,7.50
2019-01-29T17:15:37.934Z,10.55
2019-01-29T17:18:05.509Z,13.28
2019-01-29T17:20:35.032Z,14.33
2019-01-29T17:23:02.821Z,13.43
2019-01-29T17:25:30.138Z,16.37
2019-01-29T17:27:57.457Z,22.58
2019-01-29T17:30:32.697Z,15.05
2019-01-29T17:33:00.081Z,11.60
2019-01-29T17:35:27.417Z,7.40
2019-01-29T17:37:54.821Z,10.15
2019-01-29T17:40:22.663Z,9.90
2019-01-29T17:42:50.041Z,10.20
2019-01-29T17:45:20.465Z,8.70
2019-01-29T17:47:47.777Z,12.40
2019-01-29T17:50:18.633Z,9.70
2019-01-29T17:52:47.056Z,9.95
2019-01-29T17:55:14.520Z,8.73
2019-01-29T17:57:50.485Z,14.35
2019-01-29T18:00:14.457Z,14.58
2019-01-29T18:02:41.760Z,12.75
2019-01-29T18:05:09.160Z,10.53
2019-01-29T18:07:36.490Z,9.70
2019-01-29T18:10:05.292Z,10.08
2019-01-29T18:12:32.590Z,11.03
2019-01-29T18:14:59.951Z,8.75
2019-01-29T18:17:27.240Z,22.70
2019-01-29T18:19:54.571Z,14.90
2019-01-29T18:22:21.928Z,21.25
2019-01-29T18:24:49.231Z,20.10
2019-01-29T18:27:16.541Z,12.28
2019-01-29T18:29:43.945Z,11.97
2019-01-29T18:32:11.296Z,13.38
2019-01-29T18:34:38.619Z,12.15
2019-01-29T18:37:05.970Z,12.28
2019-01-29T18:39:33.313Z,21.10
2019-01-29T18:42:00.664Z,14.15
2019-01-29T18:44:28.064Z,14.87
2019-01-29T18:46:55.405Z,17.20
2019-01-29T18:49:22.640Z,12.53
2019-01-29T18:51:50.083Z,17.30
2019-01-29T18:54:17.529Z,15.72
2019-01-29T18:56:44.898Z,13.60
2019-01-29T18:59:12.597Z,11.08
2019-01-29T19:01:40.222Z,18.32
2019-01-29T19:04:07.487Z,16.57
2019-01-29T19:06:35.182Z,11.70
2019-01-29T19:09:04.561Z,12.75
2019-01-29T19:11:31.997Z,12.18
2019-01-29T19:13:59.383Z,16.45
2019-01-29T19:16:26.717Z,13.13
2019-01-29T19:18:53.989Z,12.93
2019-01-29T19:21:21.446Z,13.53
2019-01-29T19:23:48.805Z,11.35
2019-01-29T19:26:16.215Z,11.10
2019-01-29T19:28:43.538Z,11.48
2019-01-29T19:31:10.894Z,19.15
2019-01-29T19:33:38.245Z,15.80
2019-01-29T19:36:05.624Z,11.43
2019-01-29T19:38:32.880Z,16.23
2019-01-29T19:41:00.253Z,10.60
2019-01-29T19:43:27.594Z,14.05
2019-01-29T19:45:54.932Z,14.85
2019-01-29T19:48:22.274Z,13.80
2019-01-29T19:50:49.602Z,11.10
2019-01-29T19:53:17.037Z,14.85
2019-01-29T19:55:44.529Z,13.20
2019-01-29T19:58:11.794Z,18.10
2019-01-29T20:00:40.854Z,15.25
2019-01-29T20:03:08.526Z,11.57
2019-01-29T20:05:35.824Z,14.28
2019-01-29T20:08:03.655Z,14.33
2019-01-29T20:10:31.122Z,13.60
2019-01-29T20:12:58.454Z,14.68
2019-01-29T20:15:25.708Z,12.03
2019-01-29T20:17:53.392Z,11.40
2019-01-29T20:20:23.130Z,14.53
2019-01-29T20:22:50.635Z,10.82
2019-01-29T20:25:18.043Z,18.05
2019-01-29T20:27:45.393Z,17.12
2019-01-29T20:30:15.746Z,16.93
2019-01-29T20:32:52.929Z,21.73
2019-01-29T20:35:12.410Z,14.70
2019-01-29T20:37:39.754Z,13.40
2019-01-29T20:40:09.183Z,15.93
2019-01-29T20:42:36.533Z,11.95
2019-01-29T20:45:04.873Z,9.50
2019-01-29T20:47:32.304Z,11.35
2019-01-29T20:49:59.687Z,9.20
2019-01-29T20:52:27.040Z,12.28
2019-01-29T20:54:54.422Z,11.00
2019-01-29T20:57:21.811Z,9.23
2019-01-29T20:59:49.160Z,6.85
2019-01-29T21:02:16.507Z,9.85
2019-01-29T21:04:43.867Z,7.97
2019-01-29T21:07:11.557Z,6.72
2019-01-29T21:09:39.099Z,7.10
2019-01-29T21:12:06.849Z,6.53
2019-01-29T21:14:34.290Z,5.70
2019-01-29T21:17:01.801Z,9.88
2019-01-29T21:19:29.219Z,5.35
2019-01-29T21:21:56.575Z,8.60
2019-01-29T21:24:23.928Z,8.40
2019-01-29T21:26:51.273Z,5.50
2019-01-29T21:29:18.599Z,10.80
2019-01-29T21:31:45.957Z,7.40
2019-01-29T21:34:13.318Z,10.55
2019-01-29T21:36:40.675Z,8.43
2019-01-29T21:39:08.559Z,11.53
2019-01-29T21:41:35.823Z,10.23
2019-01-29T21:44:03.163Z,7.72
2019-01-29T21:46:30.581Z,10.20
2019-01-29T21:48:58.002Z,7.37
2019-01-29T21:51:25.405Z,8.48
2019-01-29T21:53:52.769Z,4.78
2019-01-29T21:56:19.995Z,6.78
2019-01-29T21:58:47.318Z,12.15
2019-01-29T22:01:14.661Z,8.33
2019-01-29T22:03:42.063Z,15.75
2019-01-29T22:06:09.391Z,10.58
2019-01-29T22:08:36.725Z,12.33
2019-01-29T22:11:04.081Z,10.28
2019-01-29T22:13:31.283Z,12.47
2019-01-29T22:15:58.636Z,12.78
2019-01-29T22:18:26.009Z,10.70
2019-01-29T22:20:53.308Z,8.88
2019-01-29T22:23:20.667Z,10.35
2019-01-29T22:25:47.983Z,13.78
2019-01-29T22:28:15.361Z,7.95
2019-01-29T22:30:42.788Z,7.30
2019-01-29T22:33:10.176Z,10.03
2019-01-29T22:35:37.597Z,13.62
2019-01-29T22:38:05.223Z,14.43
2019-01-29T22:40:32.524Z,11.93
2019-01-29T22:42:59.867Z,16.57
2019-01-29T22:45:27.213Z,14.58
2019-01-29T22:47:54.594Z,14.18
2019-01-29T22:50:26.687Z,12.45
2019-01-29T22:52:54.098Z,6.12
2019-01-29T22:55:21.462Z,9.70
2019-01-29T22:57:48.876Z,16.27
2019-01-29T23:00:28.900Z,15.08
2019-01-29T23:02:56.156Z,12.00
2019-01-29T23:05:23.501Z,13.65
2019-01-29T23:07:50.889Z,17.15
2019-01-29T23:10:19.160Z,18.27
2019-01-29T23:12:46.499Z,13.75
2019-01-29T23:15:15.020Z,12.13
2019-01-29T23:17:42.320Z,13.70
2019-01-29T23:20:10.402Z,13.03
2019-01-29T23:22:37.696Z,13.50
2019-01-29T23:25:06.468Z,16.23
2019-01-29T23:27:33.792Z,13.22
2019-01-29T23:30:01.128Z,16.17
2019-01-29T23:32:28.473Z,12.58
2019-01-29T23:34:55.712Z,15.98
2019-01-29T23:37:23.069Z,16.57
2019-01-29T23:39:50.429Z,16.90
2019-01-29T23:42:17.727Z,18.12
2019-01-29T23:44:45.086Z,16.62
2019-01-29T23:47:12.431Z,16.55
2019-01-29T23:49:39.855Z,13.58
2019-01-29T23:52:07.181Z,12.45
2019-01-29T23:54:34.516Z,14.68
2019-01-29T23:57:01.835Z,15.38
2019-01-29T23:59:29.194Z,16.17
